createdAt,value
2022-10-05T00:02:27.685Z,100903.59
2022-10-05T00:04:59.367Z,100908.91
2022-10-05T00:07:29.037Z,100899.09
2022-10-05T00:10:02.657Z,100899.84
2022-10-05T00:12:32.401Z,100893.59
2022-10-05T00:15:03.635Z,100889.06
2022-10-05T00:17:33.355Z,100884.63
2022-10-05T00:20:02.955Z,100885.47
2022-10-05T00:22:34.058Z,100882.75
2022-10-05T00:25:15.063Z,100880.97
2022-10-05T00:27:45.198Z,100889.72
2022-10-05T00:30:18.124Z,100878.19
2022-10-05T00:32:48.380Z,100879.88
2022-10-05T00:35:19.157Z,100879.81
2022-10-05T00:37:52.376Z,100880.59
2022-10-05T00:40:40.295Z,100870.84
2022-10-05T00:43:33.493Z,100874.31
2022-10-05T00:46:07.867Z,100875.16
2022-10-05T00:48:42.794Z,100877.81
2022-10-05T00:51:23.450Z,100880.44
2022-10-05T00:53:59.883Z,100879.50
2022-10-05T00:57:01.329Z,100884.81
2022-10-05T00:59:42.596Z,100882.72
2022-10-05T01:02:16.361Z,100882.72
2022-10-05T01:04:51.195Z,100874.81
2022-10-05T01:07:28.632Z,100875.69
2022-10-05T01:10:02.777Z,100873.03
2022-10-05T01:12:40.362Z,100878.34
2022-10-05T01:15:14.743Z,100872.91
2022-10-05T01:17:48.325Z,100862.38
2022-10-05T01:20:27.414Z,100857.94
2022-10-05T01:23:23.406Z,100858.81
2022-10-05T01:26:02.987Z,100863.25
2022-10-05T01:28:38.865Z,100858.63
2022-10-05T01:31:12.388Z,100858.63
2022-10-05T01:33:46.274Z,100851.41
2022-10-05T01:36:22.092Z,100842.53
2022-10-05T01:38:55.485Z,100845.94
2022-10-05T01:41:33.792Z,100844.03
2022-10-05T01:44:09.275Z,100845.81
2022-10-05T01:46:41.811Z,100843.16
2022-10-05T01:49:35.225Z,100837.22
2022-10-05T01:52:11.851Z,100833.59
2022-10-05T01:54:49.601Z,100838.00
2022-10-05T01:57:28.528Z,100830.94
2022-10-05T02:00:07.778Z,100837.09
2022-10-05T02:02:45.725Z,100828.22
2022-10-05T02:05:21.291Z,100825.56
2022-10-05T02:07:53.767Z,100823.75
2022-10-05T02:10:27.878Z,100820.34
2022-10-05T02:13:01.584Z,100815.03
2022-10-05T02:15:40.142Z,100813.09
2022-10-05T02:18:13.720Z,100810.22
2022-10-05T02:20:44.303Z,100816.63
2022-10-05T02:23:16.152Z,100807.72
2022-10-05T02:25:48.318Z,100807.66
2022-10-05T02:28:21.307Z,100808.72
2022-10-05T02:30:57.072Z,100809.59
2022-10-05T02:33:30.267Z,100813.09
2022-10-05T02:36:05.446Z,100813.09
2022-10-05T02:38:40.287Z,100808.69
2022-10-05T02:41:16.236Z,100813.03
2022-10-05T02:43:52.168Z,100812.22
2022-10-05T02:46:33.972Z,100803.50
2022-10-05T02:49:12.609Z,100800.78
2022-10-05T02:51:49.876Z,100807.88
2022-10-05T02:54:28.346Z,100795.34
2022-10-05T02:57:01.438Z,100785.59
2022-10-05T02:59:37.178Z,100802.19
2022-10-05T03:02:16.134Z,100788.16
2022-10-05T03:04:53.229Z,100788.34
2022-10-05T03:07:27.055Z,100792.06
2022-10-05T03:10:02.127Z,100784.13
2022-10-05T03:12:47.284Z,100781.38
2022-10-05T03:15:25.866Z,100785.81
2022-10-05T03:18:04.998Z,100776.09
2022-10-05T03:20:42.579Z,100780.38
2022-10-05T03:23:15.029Z,100778.66
2022-10-05T03:26:03.943Z,100773.97
2022-10-05T03:28:39.906Z,100770.56
2022-10-05T03:31:18.553Z,100774.22
2022-10-05T03:33:55.714Z,100769.84
2022-10-05T03:36:41.896Z,100769.84
2022-10-05T03:39:16.043Z,100770.88
2022-10-05T03:41:50.531Z,100752.38
2022-10-05T03:44:33.062Z,100757.75
2022-10-05T03:47:11.177Z,100755.19
2022-10-05T03:50:08.015Z,100751.75
2022-10-05T03:52:39.961Z,100756.19
2022-10-05T03:55:20.387Z,100751.06
2022-10-05T03:57:52.963Z,100741.31
2022-10-05T04:00:25.723Z,100752.09
2022-10-05T04:03:04.962Z,100744.06
2022-10-05T04:05:41.219Z,100745.06
2022-10-05T04:08:16.109Z,100745.22
2022-10-05T04:10:48.368Z,100744.47
2022-10-05T04:13:23.744Z,100733.94
2022-10-05T04:15:58.789Z,100743.66
2022-10-05T04:18:36.725Z,100742.03
2022-10-05T04:21:12.698Z,100744.00
2022-10-05T04:23:47.992Z,100731.75
2022-10-05T04:26:21.538Z,100735.34
2022-10-05T04:28:58.963Z,100727.38
2022-10-05T04:31:41.975Z,100728.50
2022-10-05T04:34:18.780Z,100728.59
2022-10-05T04:36:57.352Z,100730.66
2022-10-05T04:39:32.943Z,100732.94
2022-10-05T04:42:10.257Z,100727.72
2022-10-05T04:44:59.109Z,100731.53
2022-10-05T04:47:47.220Z,100730.69
2022-10-05T04:50:31.201Z,100736.75
2022-10-05T04:53:16.883Z,100740.25
2022-10-05T04:55:52.205Z,100732.38
2022-10-05T04:58:30.534Z,100737.69
2022-10-05T05:01:10.523Z,100740.16
2022-10-05T05:03:53.093Z,100744.38
2022-10-05T05:06:31.733Z,100741.75
2022-10-05T05:09:24.495Z,100739.84
2022-10-05T05:12:10.101Z,100746.66
2022-10-05T05:14:49.656Z,100745.63
2022-10-05T05:17:32.722Z,100740.97
2022-10-05T05:20:11.271Z,100742.41
2022-10-05T05:22:47.192Z,100739.84
2022-10-05T05:25:34.604Z,100741.41
2022-10-05T05:28:09.229Z,100739.00
2022-10-05T05:30:43.740Z,100740.78
2022-10-05T05:33:23.006Z,100740.69
2022-10-05T05:36:23.538Z,100744.19
2022-10-05T05:39:03.263Z,100745.91
2022-10-05T05:41:40.204Z,100739.72
2022-10-05T05:44:20.384Z,100745.84
2022-10-05T05:47:03.856Z,100740.47
2022-10-05T05:49:44.629Z,100736.66
2022-10-05T05:52:19.130Z,100734.69
2022-10-05T05:54:52.879Z,100741.66
2022-10-05T05:57:29.581Z,100730.19
2022-10-05T06:00:05.591Z,100737.28
2022-10-05T06:02:47.158Z,100730.06
2022-10-05T06:05:28.967Z,100730.72
2022-10-05T06:08:01.195Z,100736.88
2022-10-05T06:10:37.471Z,100730.56
2022-10-05T06:13:16.282Z,100734.59
2022-10-05T06:15:50.114Z,100746.06
2022-10-05T06:18:22.606Z,100731.81
2022-10-05T06:20:58.615Z,100739.75
2022-10-05T06:23:31.227Z,100740.28
2022-10-05T06:26:13.229Z,100738.31
2022-10-05T06:28:51.496Z,100745.16
2022-10-05T06:31:32.258Z,100741.31
2022-10-05T06:34:14.618Z,100746.38
2022-10-05T06:36:48.833Z,100742.63
2022-10-05T06:39:34.098Z,100739.88
2022-10-05T06:42:14.731Z,100744.19
2022-10-05T06:45:12.671Z,100740.66
2022-10-05T06:48:25.762Z,100745.88
2022-10-05T06:51:23.350Z,100747.41
2022-10-05T06:54:30.161Z,100743.13
2022-10-05T06:57:06.223Z,100747.34
2022-10-05T06:59:40.771Z,100748.25
2022-10-05T07:02:19.073Z,100744.53
2022-10-05T07:05:02.548Z,100742.63
2022-10-05T07:07:35.925Z,100753.94
2022-10-05T07:10:15.454Z,100742.47
2022-10-05T07:12:56.907Z,100748.47
2022-10-05T07:15:39.264Z,100748.28
2022-10-05T07:18:24.032Z,100744.63
2022-10-05T07:21:00.414Z,100754.09
2022-10-05T07:23:43.111Z,100744.44
2022-10-05T07:26:17.427Z,100751.44
2022-10-05T07:28:50.524Z,100750.34
2022-10-05T07:31:28.973Z,100757.47
2022-10-05T07:34:08.222Z,100752.06
2022-10-05T07:36:55.816Z,100752.81
2022-10-05T07:39:58.544Z,100754.38
2022-10-05T07:42:28.792Z,100761.41
2022-10-05T07:45:01.828Z,100761.41
2022-10-05T07:47:37.545Z,100760.25
2022-10-05T07:50:14.856Z,100760.13
2022-10-05T07:52:48.222Z,100767.22
2022-10-05T07:55:22.160Z,100767.03
2022-10-05T07:57:59.606Z,100771.41
2022-10-05T08:00:50.109Z,100768.56
2022-10-05T08:03:29.663Z,100763.19
2022-10-05T08:06:02.624Z,100761.38
2022-10-05T08:08:38.832Z,100761.38
2022-10-05T08:11:16.634Z,100767.47
2022-10-05T08:13:51.314Z,100767.22
2022-10-05T08:16:21.453Z,100763.41
2022-10-05T08:18:58.103Z,100760.59
2022-10-05T08:21:34.460Z,100759.59
2022-10-05T08:24:09.558Z,100753.94
2022-10-05T08:26:42.803Z,100756.50
2022-10-05T08:29:18.644Z,100752.91
2022-10-05T08:31:50.475Z,100753.47
2022-10-05T08:34:26.575Z,100755.13
2022-10-05T08:37:03.672Z,100747.91
2022-10-05T08:39:36.838Z,100748.59
2022-10-05T08:42:31.160Z,100749.38
2022-10-05T08:45:33.728Z,100753.53
2022-10-05T08:48:28.099Z,100748.06
2022-10-05T08:51:27.739Z,100749.47
2022-10-05T08:54:40.973Z,100744.09
2022-10-05T08:57:35.568Z,100740.09
2022-10-05T09:00:14.836Z,100749.81
2022-10-05T09:03:08.188Z,100746.88
2022-10-05T09:05:56.759Z,100741.28
2022-10-05T09:08:47.246Z,100744.81
2022-10-05T09:11:22.530Z,100743.66
2022-10-05T09:14:20.853Z,100740.16
2022-10-05T09:16:53.655Z,100735.44
2022-10-05T09:20:02.819Z,100729.91
2022-10-05T09:22:39.603Z,100728.97
2022-10-05T09:25:28.722Z,100732.97
2022-10-05T09:28:06.582Z,100726.53
2022-10-05T09:30:51.553Z,100721.97
2022-10-05T09:33:53.928Z,100728.81
2022-10-05T09:36:53.499Z,100721.38
2022-10-05T09:40:00.468Z,100719.31
2022-10-05T09:42:52.651Z,100726.34
2022-10-05T09:45:57.721Z,100710.00
2022-10-05T09:49:07.608Z,100719.72
2022-10-05T09:52:16.415Z,100705.53
2022-10-05T09:55:20.261Z,100714.28
2022-10-05T09:58:06.876Z,100710.75
2022-10-05T10:00:55.638Z,100707.72
2022-10-05T10:04:07.080Z,100709.81
2022-10-05T10:07:05.014Z,100710.97
2022-10-05T10:09:39.578Z,100701.09
2022-10-05T10:12:30.358Z,100703.53
2022-10-05T10:15:24.381Z,100703.94
2022-10-05T10:18:10.352Z,100703.66
2022-10-05T10:20:50.531Z,100692.81
2022-10-05T10:23:32.452Z,100695.94
2022-10-05T10:26:37.853Z,100688.72
2022-10-05T10:29:47.297Z,100692.81
2022-10-05T10:32:30.392Z,100693.66
2022-10-05T10:35:19.355Z,100697.06
2022-10-05T10:38:15.613Z,100701.34
2022-10-05T10:40:57.648Z,100700.09
2022-10-05T10:43:52.546Z,100699.13
2022-10-05T10:46:31.864Z,100701.50
2022-10-05T10:49:15.710Z,100700.53
2022-10-05T10:51:55.693Z,100701.22
2022-10-05T10:54:44.888Z,100695.56
2022-10-05T10:57:20.136Z,100682.06
2022-10-05T11:00:16.595Z,100681.66
2022-10-05T11:03:08.528Z,100675.09
2022-10-05T11:06:00.140Z,100672.09
2022-10-05T11:08:46.931Z,100673.13
2022-10-05T11:11:27.253Z,100672.91
2022-10-05T11:14:32.756Z,100659.84
2022-10-05T11:17:32.279Z,100660.06
2022-10-05T11:20:34.226Z,100658.09
2022-10-05T11:23:22.355Z,100642.09
2022-10-05T11:26:07.445Z,100639.03
2022-10-05T11:29:00.255Z,100649.22
2022-10-05T11:31:48.784Z,100644.63
2022-10-05T11:34:45.648Z,100637.28
2022-10-05T11:37:44.670Z,100632.47
2022-10-05T11:40:34.944Z,100620.41
2022-10-05T11:43:17.810Z,100618.25
2022-10-05T11:45:58.420Z,100609.81
2022-10-05T11:48:39.795Z,100604.00
2022-10-05T11:51:28.896Z,100602.22
2022-10-05T11:54:09.565Z,100586.09
2022-10-05T11:56:43.619Z,100583.88
2022-10-05T11:59:18.953Z,100580.53
2022-10-05T12:01:53.537Z,100578.22
2022-10-05T12:04:31.445Z,100567.53
2022-10-05T12:07:12.651Z,100563.94
2022-10-05T12:10:09.189Z,100570.72
2022-10-05T12:12:44.260Z,100554.03
2022-10-05T12:15:20.300Z,100543.75
2022-10-05T12:17:55.144Z,100545.44
2022-10-05T12:20:29.004Z,100544.63
2022-10-05T12:23:04.813Z,100538.53
2022-10-05T12:25:37.038Z,100536.13
2022-10-05T12:28:12.796Z,100528.50
2022-10-05T12:31:01.499Z,100517.81
2022-10-05T12:33:36.861Z,100517.22
2022-10-05T12:36:09.184Z,100516.88
2022-10-05T12:38:45.925Z,100503.78
2022-10-05T12:41:22.688Z,100500.88
2022-10-05T12:44:05.195Z,100492.38
2022-10-05T12:46:41.296Z,100490.31
2022-10-05T12:49:37.757Z,100481.09
2022-10-05T12:52:08.658Z,100477.22
2022-10-05T12:54:49.432Z,100472.22
2022-10-05T12:57:24.722Z,100469.91
2022-10-05T12:59:58.799Z,100463.09
2022-10-05T13:02:34.540Z,100458.97
2022-10-05T13:05:14.383Z,100457.38
2022-10-05T13:07:52.664Z,100455.66
2022-10-05T13:10:31.888Z,100448.84
2022-10-05T13:13:12.737Z,100431.28
2022-10-05T13:15:48.897Z,100435.44
2022-10-05T13:18:24.171Z,100424.94
2022-10-05T13:21:04.866Z,100429.19
2022-10-05T13:23:46.471Z,100407.28
2022-10-05T13:26:20.921Z,100409.44
2022-10-05T13:28:55.963Z,100409.81
2022-10-05T13:31:29.282Z,100406.72
2022-10-05T13:34:09.851Z,100402.69
2022-10-05T13:36:46.934Z,100400.50
2022-10-05T13:39:30.733Z,100414.44
2022-10-05T13:42:07.809Z,100408.56
2022-10-05T13:44:44.128Z,100405.09
2022-10-05T13:47:17.967Z,100400.75
2022-10-05T13:49:53.740Z,100393.41
2022-10-05T13:52:30.855Z,100416.66
2022-10-05T13:55:05.047Z,100402.16
2022-10-05T13:57:47.716Z,100398.63
2022-10-05T14:00:24.238Z,100386.84
2022-10-05T14:02:59.061Z,100390.06
2022-10-05T14:05:29.889Z,100383.47
2022-10-05T14:08:01.233Z,100387.13
2022-10-05T14:10:38.260Z,100402.34
2022-10-05T14:13:26.427Z,100383.34
2022-10-05T14:16:20.651Z,100395.28
2022-10-05T14:18:58.902Z,100384.59
2022-10-05T14:21:30.990Z,100395.16
2022-10-05T14:24:39.567Z,100389.63
2022-10-05T14:27:22.760Z,100398.50
2022-10-05T14:30:04.205Z,100396.09
2022-10-05T14:32:35.414Z,100394.13
2022-10-05T14:35:16.704Z,100401.16
2022-10-05T14:37:49.630Z,100390.03
2022-10-05T14:40:33.847Z,100393.56
2022-10-05T14:43:06.703Z,100394.88
2022-10-05T14:45:39.010Z,100384.25
2022-10-05T14:48:13.475Z,100390.59
2022-10-05T14:50:55.011Z,100401.72
2022-10-05T14:53:26.183Z,100394.53
2022-10-05T14:56:32.208Z,100395.78
2022-10-05T14:59:23.265Z,100396.75
2022-10-05T15:01:59.205Z,100402.94
2022-10-05T15:04:38.199Z,100393.22
2022-10-05T15:07:21.161Z,100396.75
2022-10-05T15:10:22.795Z,100383.03
2022-10-05T15:12:55.103Z,100395.25
2022-10-05T15:15:30.436Z,100393.41
2022-10-05T15:18:04.514Z,100403.53
2022-10-05T15:20:38.584Z,100405.25
2022-10-05T15:23:23.743Z,100411.31
2022-10-05T15:26:01.275Z,100406.09
2022-10-05T15:28:38.690Z,100415.38
2022-10-05T15:31:16.270Z,100418.91
2022-10-05T15:33:58.239Z,100418.91
2022-10-05T15:36:35.634Z,100420.84
2022-10-05T15:39:12.285Z,100436.44
2022-10-05T15:41:56.523Z,100429.88
2022-10-05T15:44:36.620Z,100418.97
2022-10-05T15:47:08.708Z,100432.84
2022-10-05T15:49:50.191Z,100437.59
2022-10-05T15:52:25.459Z,100444.78
2022-10-05T15:55:23.896Z,100449.66
2022-10-05T15:58:00.955Z,100451.34
2022-10-05T16:00:31.011Z,100456.25
2022-10-05T16:03:05.995Z,100456.97
2022-10-05T16:06:00.421Z,100472.53
2022-10-05T16:08:56.787Z,100469.13
2022-10-05T16:11:36.812Z,100476.16
2022-10-05T16:14:18.221Z,100479.34
2022-10-05T16:16:58.512Z,100487.50
2022-10-05T16:19:32.196Z,100494.41
2022-10-05T16:22:06.642Z,100499.28
2022-10-05T16:25:05.728Z,100503.16
2022-10-05T16:27:44.491Z,100511.19
2022-10-05T16:30:16.568Z,100517.50
2022-10-05T16:32:50.008Z,100520.19
2022-10-05T16:35:26.536Z,100528.59
2022-10-05T16:38:05.556Z,100527.84
2022-10-05T16:40:40.472Z,100553.72
2022-10-05T16:43:21.590Z,100548.25
2022-10-05T16:45:58.980Z,100549.00
2022-10-05T16:48:31.037Z,100565.91
2022-10-05T16:51:20.752Z,100560.28
2022-10-05T16:53:59.700Z,100562.00
2022-10-05T16:56:34.211Z,100580.56
2022-10-05T16:59:12.239Z,100574.50
2022-10-05T17:01:49.399Z,100569.03
2022-10-05T17:04:35.486Z,100573.41
2022-10-05T17:07:28.753Z,100578.41
2022-10-05T17:10:25.004Z,100599.06
2022-10-05T17:13:03.068Z,100602.81
2022-10-05T17:15:41.989Z,100614.50
2022-10-05T17:18:27.264Z,100617.25
2022-10-05T17:21:07.873Z,100626.84
2022-10-05T17:23:54.222Z,100642.28
2022-10-05T17:26:55.523Z,100651.69
2022-10-05T17:29:30.682Z,100649.38
2022-10-05T17:32:48.371Z,100669.63
2022-10-05T17:35:22.110Z,100667.66
2022-10-05T17:38:12.239Z,100677.94
2022-10-05T17:40:42.426Z,100678.28
2022-10-05T17:43:31.530Z,100683.75
2022-10-05T17:46:03.172Z,100695.50
2022-10-05T17:49:10.413Z,100695.09
2022-10-05T17:52:13.763Z,100703.22
2022-10-05T17:55:12.606Z,100705.16
2022-10-05T17:57:42.143Z,100703.78
2022-10-05T18:00:43.597Z,100711.91
2022-10-05T18:03:38.859Z,100719.31
2022-10-05T18:06:31.917Z,100716.97
2022-10-05T18:09:20.920Z,100736.72
2022-10-05T18:12:26.925Z,100735.03
2022-10-05T18:15:04.339Z,100728.59
2022-10-05T18:17:50.605Z,100733.31
2022-10-05T18:20:23.781Z,100728.00
2022-10-05T18:22:54.634Z,100738.00
2022-10-05T18:25:29.438Z,100737.03
2022-10-05T18:28:24.311Z,100733.53
2022-10-05T18:31:05.779Z,100730.00
2022-10-05T18:33:59.666Z,100726.59
2022-10-05T18:37:04.653Z,100727.28
2022-10-05T18:40:02.042Z,100723.53
2022-10-05T18:42:36.841Z,100737.84
2022-10-05T18:45:16.713Z,100734.31
2022-10-05T18:47:52.173Z,100741.34
2022-10-05T18:50:29.794Z,100740.38
2022-10-05T18:53:11.756Z,100734.19
2022-10-05T18:55:45.854Z,100740.94
2022-10-05T18:58:19.520Z,100743.47
2022-10-05T19:01:03.829Z,100749.59
2022-10-05T19:03:38.255Z,100748.81
2022-10-05T19:06:15.363Z,100743.38
2022-10-05T19:08:52.532Z,100742.63
2022-10-05T19:11:25.780Z,100734.50
2022-10-05T19:14:01.975Z,100742.44
2022-10-05T19:16:44.555Z,100746.03
2022-10-05T19:19:46.744Z,100736.44
2022-10-05T19:22:25.873Z,100739.84
2022-10-05T19:25:04.296Z,100745.94
2022-10-05T19:27:42.192Z,100744.25
2022-10-05T19:30:27.350Z,100751.16
2022-10-05T19:33:33.653Z,100746.81
2022-10-05T19:36:25.029Z,100746.47
2022-10-05T19:39:06.212Z,100755.53
2022-10-05T19:41:47.022Z,100765.25
2022-10-05T19:44:26.073Z,100762.59
2022-10-05T19:47:02.408Z,100758.31
2022-10-05T19:49:39.469Z,100762.59
2022-10-05T19:52:14.829Z,100763.88
2022-10-05T19:54:49.010Z,100756.50
2022-10-05T19:57:20.884Z,100760.75
2022-10-05T19:59:50.816Z,100751.91
2022-10-05T20:02:21.014Z,100754.47
2022-10-05T20:04:54.925Z,100767.91
2022-10-05T20:07:24.630Z,100756.06
2022-10-05T20:09:59.438Z,100761.50
2022-10-05T20:12:53.433Z,100757.78
2022-10-05T20:15:36.954Z,100769.97
2022-10-05T20:18:49.095Z,100762.59
2022-10-05T20:21:40.653Z,100768.25
2022-10-05T20:24:11.327Z,100776.28
2022-10-05T20:26:58.914Z,100775.38
2022-10-05T20:29:28.489Z,100785.13
2022-10-05T20:31:58.137Z,100780.72
2022-10-05T20:34:27.730Z,100772.72
2022-10-05T20:36:57.323Z,100784.28
2022-10-05T20:39:26.817Z,100783.38
2022-10-05T20:41:58.966Z,100783.19
2022-10-05T20:44:28.981Z,100792.78
2022-10-05T20:47:01.080Z,100799.31
2022-10-05T20:49:31.130Z,100810.63
2022-10-05T20:52:01.214Z,100808.81
2022-10-05T20:54:31.251Z,100811.47
2022-10-05T20:57:05.718Z,100802.84
2022-10-05T20:59:36.158Z,100818.75
2022-10-05T21:02:06.244Z,100817.03
2022-10-05T21:04:40.796Z,100819.69
2022-10-05T21:07:11.301Z,100814.13
2022-10-05T21:09:42.346Z,100815.00
2022-10-05T21:12:14.462Z,100814.38
2022-10-05T21:14:44.018Z,100812.66
2022-10-05T21:17:14.189Z,100824.31
2022-10-05T21:19:43.768Z,100823.34
2022-10-05T21:22:13.515Z,100827.81
2022-10-05T21:24:43.531Z,100833.78
2022-10-05T21:27:15.644Z,100836.34
2022-10-05T21:29:45.384Z,100829.06
2022-10-05T21:32:14.905Z,100835.16
2022-10-05T21:34:44.513Z,100834.31
2022-10-05T21:37:15.418Z,100837.84
2022-10-05T21:39:45.768Z,100845.06
2022-10-05T21:42:17.943Z,100857.56
2022-10-05T21:44:47.524Z,100852.16
2022-10-05T21:47:17.234Z,100848.09
2022-10-05T21:49:46.808Z,100862.16
2022-10-05T21:52:16.431Z,100857.06
2022-10-05T21:54:46.273Z,100866.88
2022-10-05T21:57:18.650Z,100872.53
2022-10-05T21:59:48.290Z,100876.03
2022-10-05T22:02:17.785Z,100891.31
2022-10-05T22:04:47.458Z,100924.94
2022-10-05T22:07:20.697Z,100949.66
2022-10-05T22:09:50.556Z,100958.16
2022-10-05T22:12:22.768Z,100946.72
2022-10-05T22:14:52.449Z,100934.41
2022-10-05T22:17:27.337Z,100949.59
2022-10-05T22:19:57.013Z,100963.41
2022-10-05T22:22:27.223Z,100965.66
2022-10-05T22:24:57.479Z,100960.47
2022-10-05T22:27:30.920Z,100965.00
2022-10-05T22:30:01.105Z,100977.31
2022-10-05T22:32:30.638Z,100994.34
2022-10-05T22:35:00.509Z,100985.56
2022-10-05T22:37:30.120Z,100986.72
2022-10-05T22:39:59.866Z,100995.81
2022-10-05T22:42:32.061Z,101006.69
2022-10-05T22:45:01.711Z,101008.97
2022-10-05T22:47:31.226Z,101019.25
2022-10-05T22:50:00.732Z,101021.16
2022-10-05T22:52:30.378Z,101018.66
2022-10-05T22:54:59.883Z,101025.97
2022-10-05T22:57:40.264Z,101031.78
2022-10-05T23:00:12.418Z,101045.34
2022-10-05T23:02:43.533Z,101048.28
2022-10-05T23:05:14.611Z,101049.41
2022-10-05T23:07:46.607Z,101059.50
2022-10-05T23:10:18.671Z,101063.00
2022-10-05T23:13:00.550Z,101081.03
2022-10-05T23:15:30.878Z,101106.78
2022-10-05T23:18:00.400Z,101122.28
2022-10-05T23:20:30.092Z,101151.63
2022-10-05T23:23:00.625Z,101156.53
2022-10-05T23:25:30.248Z,101156.66
2022-10-05T23:28:04.585Z,101179.19
2022-10-05T23:30:34.254Z,101186.00
2022-10-05T23:33:03.828Z,101189.47
2022-10-05T23:35:33.375Z,101191.75
2022-10-05T23:38:02.940Z,101189.75
2022-10-05T23:40:32.486Z,101199.59
2022-10-05T23:43:05.300Z,101200.69
2022-10-05T23:45:35.000Z,101204.69
2022-10-05T23:48:04.593Z,101200.47
2022-10-05T23:50:34.098Z,101204.16
2022-10-05T23:53:03.630Z,101202.78
2022-10-05T23:55:33.242Z,101198.66
2022-10-05T23:58:05.348Z,101198.94
